sensor_id;sensor_type;location;lat;lon;timestamp;pressure;altitude;pressure_sealevel;temperature;humidity
51603;BME280;37954;51.980;5.850;2022-08-19T00:00:46;101018.63;;;19.99;73.59
51603;BME280;37954;51.980;5.850;2022-08-19T00:05:23;101033.34;;;20.03;73.63
51603;BME280;37954;51.980;5.850;2022-08-19T00:09:35;101024.09;;;19.94;73.54
51603;BME280;37954;51.980;5.850;2022-08-19T00:13:47;101029.03;;;19.87;73.56
51603;BME280;37954;51.980;5.850;2022-08-19T00:18:00;101029.88;;;19.82;73.88
51603;BME280;37954;51.980;5.850;2022-08-19T00:22:12;101021.41;;;19.78;74.05
51603;BME280;37954;51.980;5.850;2022-08-19T00:26:25;101034.78;;;19.75;74.25
51603;BME280;37954;51.980;5.850;2022-08-19T00:30:37;101028.00;;;19.67;74.14
51603;BME280;37954;51.980;5.850;2022-08-19T00:34:49;101017.38;;;19.66;74.32
51603;BME280;37954;51.980;5.850;2022-08-19T00:39:01;101012.47;;;19.58;74.66
51603;BME280;37954;51.980;5.850;2022-08-19T00:43:13;101018.19;;;19.61;74.74
51603;BME280;37954;51.980;5.850;2022-08-19T00:47:29;101002.66;;;19.46;74.69
51603;BME280;37954;51.980;5.850;2022-08-19T00:51:43;101031.03;;;19.51;75.16
51603;BME280;37954;51.980;5.850;2022-08-19T00:55:58;101013.56;;;19.41;75.00
51603;BME280;37954;51.980;5.850;2022-08-19T01:00:14;101023.94;;;19.44;75.33
51603;BME280;37954;51.980;5.850;2022-08-19T01:04:25;101020.94;;;19.36;75.42
51603;BME280;37954;51.980;5.850;2022-08-19T01:08:37;101026.69;;;19.34;75.40
51603;BME280;37954;51.980;5.850;2022-08-19T01:12:50;101031.03;;;19.30;75.54
51603;BME280;37954;51.980;5.850;2022-08-19T01:17:02;101032.38;;;19.28;75.73
51603;BME280;37954;51.980;5.850;2022-08-19T01:21:37;101024.53;;;19.21;75.97
51603;BME280;37954;51.980;5.850;2022-08-19T01:25:52;101032.69;;;19.21;76.08
51603;BME280;37954;51.980;5.850;2022-08-19T01:30:06;101029.97;;;19.16;76.05
51603;BME280;37954;51.980;5.850;2022-08-19T01:34:19;101034.03;;;19.13;76.22
51603;BME280;37954;51.980;5.850;2022-08-19T01:38:30;101037.31;;;19.10;76.12
51603;BME280;37954;51.980;5.850;2022-08-19T01:42:43;101038.41;;;19.15;76.47
51603;BME280;37954;51.980;5.850;2022-08-19T01:46:54;101027.50;;;19.15;76.52
51603;BME280;37954;51.980;5.850;2022-08-19T01:51:07;101031.31;;;19.13;76.47
51603;BME280;37954;51.980;5.850;2022-08-19T01:55:21;101032.41;;;19.07;76.30
51603;BME280;37954;51.980;5.850;2022-08-19T01:59:35;101020.16;;;19.00;76.64
51603;BME280;37954;51.980;5.850;2022-08-19T02:03:47;101029.69;;;19.07;76.81
51603;BME280;37954;51.980;5.850;2022-08-19T02:07:59;101034.59;;;19.21;76.88
51603;BME280;37954;51.980;5.850;2022-08-19T02:12:11;101043.84;;;19.30;77.17
51603;BME280;37954;51.980;5.850;2022-08-19T02:16:23;101050.91;;;19.41;77.11
51603;BME280;37954;51.980;5.850;2022-08-19T02:20:35;101047.09;;;19.47;77.07
51603;BME280;37954;51.980;5.850;2022-08-19T02:24:48;101038.63;;;19.48;77.01
51603;BME280;37954;51.980;5.850;2022-08-19T02:29:00;101035.38;;;19.46;76.73
51603;BME280;37954;51.980;5.850;2022-08-19T02:33:12;101046.03;;;19.38;76.94
51603;BME280;37954;51.980;5.850;2022-08-19T02:37:24;101053.09;;;19.29;76.74
51603;BME280;37954;51.980;5.850;2022-08-19T02:41:54;101034.28;;;19.22;77.05
51603;BME280;37954;51.980;5.850;2022-08-19T02:46:24;101050.38;;;19.24;77.17
51603;BME280;37954;51.980;5.850;2022-08-19T02:50:39;101042.22;;;19.13;76.84
51603;BME280;37954;51.980;5.850;2022-08-19T02:55:04;101047.66;;;19.08;77.00
51603;BME280;37954;51.980;5.850;2022-08-19T02:59:16;101052.28;;;18.98;76.92
51603;BME280;37954;51.980;5.850;2022-08-19T03:03:30;101044.38;;;18.81;76.92
51603;BME280;37954;51.980;5.850;2022-08-19T03:07:43;101047.38;;;18.80;77.13
51603;BME280;37954;51.980;5.850;2022-08-19T03:11:55;101039.19;;;18.64;77.48
51603;BME280;37954;51.980;5.850;2022-08-19T03:16:06;101046.53;;;18.64;77.53
51603;BME280;37954;51.980;5.850;2022-08-19T03:20:18;101048.38;;;18.58;77.66
51603;BME280;37954;51.980;5.850;2022-08-19T03:24:30;101037.47;;;18.48;77.71
51603;BME280;37954;51.980;5.850;2022-08-19T03:28:44;101042.94;;;18.48;77.62
51603;BME280;37954;51.980;5.850;2022-08-19T03:33:09;101049.44;;;18.42;77.82
51603;BME280;37954;51.980;5.850;2022-08-19T03:37:28;101054.59;;;18.38;77.86
51603;BME280;37954;51.980;5.850;2022-08-19T03:41:42;101055.94;;;18.36;77.85
51603;BME280;37954;51.980;5.850;2022-08-19T03:46:01;101052.13;;;18.37;78.38
51603;BME280;37954;51.980;5.850;2022-08-19T03:50:14;101051.84;;;18.38;78.26
51603;BME280;37954;51.980;5.850;2022-08-19T03:54:26;101065.19;;;18.40;78.51
51603;BME280;37954;51.980;5.850;2022-08-19T03:58:40;101050.25;;;18.42;78.73
51603;BME280;37954;51.980;5.850;2022-08-19T04:02:56;101037.75;;;18.47;79.57
51603;BME280;37954;51.980;5.850;2022-08-19T04:07:13;101048.34;;;18.53;79.77
51603;BME280;37954;51.980;5.850;2022-08-19T04:11:30;101051.91;;;18.54;79.38
51603;BME280;37954;51.980;5.850;2022-08-19T04:15:54;101049.75;;;18.51;79.35
51603;BME280;37954;51.980;5.850;2022-08-19T04:20:06;101044.53;;;18.39;79.27
51603;BME280;37954;51.980;5.850;2022-08-19T04:24:19;101039.91;;;18.34;79.09
51603;BME280;37954;51.980;5.850;2022-08-19T04:28:31;101024.63;;;18.23;79.22
51603;BME280;37954;51.980;5.850;2022-08-19T04:32:44;101029.50;;;18.21;78.99
51603;BME280;37954;51.980;5.850;2022-08-19T04:36:57;101022.69;;;18.14;79.12
51603;BME280;37954;51.980;5.850;2022-08-19T04:41:09;101024.56;;;18.08;79.17
51603;BME280;37954;51.980;5.850;2022-08-19T04:45:39;101021.28;;;18.06;79.38
51603;BME280;37954;51.980;5.850;2022-08-19T04:49:54;101019.66;;;18.05;79.44
51603;BME280;37954;51.980;5.850;2022-08-19T04:54:06;101019.66;;;18.05;79.42
51603;BME280;37954;51.980;5.850;2022-08-19T04:58:18;101018.28;;;18.02;79.38
51603;BME280;37954;51.980;5.850;2022-08-19T05:02:30;101036.53;;;18.07;79.40
51603;BME280;37954;51.980;5.850;2022-08-19T05:06:41;101036.78;;;18.05;79.43
51603;BME280;37954;51.980;5.850;2022-08-19T05:10:54;101027.28;;;18.08;79.47
51603;BME280;37954;51.980;5.850;2022-08-19T05:15:06;101041.44;;;18.10;79.54
51603;BME280;37954;51.980;5.850;2022-08-19T05:19:19;101044.47;;;18.24;79.62
51603;BME280;37954;51.980;5.850;2022-08-19T05:23:50;101038.59;;;18.52;79.62
51603;BME280;37954;51.980;5.850;2022-08-19T05:28:01;101044.13;;;19.38;79.59
51603;BME280;37954;51.980;5.850;2022-08-19T05:32:13;101036.19;;;20.42;78.54
51603;BME280;37954;51.980;5.850;2022-08-19T05:36:26;101043.28;;;21.50;76.80
51603;BME280;37954;51.980;5.850;2022-08-19T05:40:38;101041.78;;;22.53;74.72
51603;BME280;37954;51.980;5.850;2022-08-19T05:44:50;101047.44;;;23.32;72.54
51603;BME280;37954;51.980;5.850;2022-08-19T05:49:03;101051.59;;;24.03;69.61
51603;BME280;37954;51.980;5.850;2022-08-19T05:53:16;101036.69;;;24.58;67.10
51603;BME280;37954;51.980;5.850;2022-08-19T05:57:28;101059.84;;;25.24;63.28
51603;BME280;37954;51.980;5.850;2022-08-19T06:01:42;101055.06;;;25.61;62.63
51603;BME280;37954;51.980;5.850;2022-08-19T06:05:54;101056.81;;;25.88;60.89
51603;BME280;37954;51.980;5.850;2022-08-19T06:10:08;101064.03;;;26.23;60.45
51603;BME280;37954;51.980;5.850;2022-08-19T06:14:24;101063.31;;;26.49;58.74
51603;BME280;37954;51.980;5.850;2022-08-19T06:18:38;101059.28;;;26.63;57.90
51603;BME280;37954;51.980;5.850;2022-08-19T06:22:50;101062.03;;;27.07;58.03
51603;BME280;37954;51.980;5.850;2022-08-19T06:27:03;101080.97;;;27.43;56.74
51603;BME280;37954;51.980;5.850;2022-08-19T06:31:23;101075.59;;;27.46;56.25
51603;BME280;37954;51.980;5.850;2022-08-19T06:35:39;101081.84;;;27.81;55.33
51603;BME280;37954;51.980;5.850;2022-08-19T06:39:50;101080.47;;;27.58;54.27
51603;BME280;37954;51.980;5.850;2022-08-19T06:44:02;101078.56;;;26.63;56.07
51603;BME280;37954;51.980;5.850;2022-08-19T06:48:14;101067.75;;;25.71;57.74
51603;BME280;37954;51.980;5.850;2022-08-19T06:52:35;101065.59;;;24.92;59.96
51603;BME280;37954;51.980;5.850;2022-08-19T06:56:48;101064.56;;;24.52;61.27
51603;BME280;37954;51.980;5.850;2022-08-19T07:01:04;101061.34;;;24.09;62.28
51603;BME280;37954;51.980;5.850;2022-08-19T07:05:19;101056.75;;;23.90;63.57
51603;BME280;37954;51.980;5.850;2022-08-19T07:09:31;101060.31;;;23.64;64.21
51603;BME280;37954;51.980;5.850;2022-08-19T07:13:43;101071.38;;;23.26;65.44
51603;BME280;37954;51.980;5.850;2022-08-19T07:17:56;101073.19;;;23.17;65.53
51603;BME280;37954;51.980;5.850;2022-08-19T07:22:08;101084.00;;;23.08;66.40
51603;BME280;37954;51.980;5.850;2022-08-19T07:26:27;101081.84;;;23.05;66.72
51603;BME280;37954;51.980;5.850;2022-08-19T07:30:39;101083.66;;;22.96;66.81
51603;BME280;37954;51.980;5.850;2022-08-19T07:34:54;101066.16;;;22.92;66.99
51603;BME280;37954;51.980;5.850;2022-08-19T07:39:10;101102.94;;;23.23;66.86
51603;BME280;37954;51.980;5.850;2022-08-19T07:43:22;101110.13;;;23.71;66.44
51603;BME280;37954;51.980;5.850;2022-08-19T07:47:45;101121.72;;;23.95;65.53
51603;BME280;37954;51.980;5.850;2022-08-19T07:52:09;101101.72;;;24.22;65.12
51603;BME280;37954;51.980;5.850;2022-08-19T07:56:22;101109.72;;;25.31;63.70
51603;BME280;37954;51.980;5.850;2022-08-19T08:00:34;101101.34;;;25.37;61.38
51603;BME280;37954;51.980;5.850;2022-08-19T08:04:46;101113.47;;;25.58;60.75
51603;BME280;37954;51.980;5.850;2022-08-19T08:09:22;101107.84;;;25.41;60.39
51603;BME280;37954;51.980;5.850;2022-08-19T08:13:34;101113.19;;;25.46;60.06
51603;BME280;37954;51.980;5.850;2022-08-19T08:17:49;101122.53;;;25.36;60.02
51603;BME280;37954;51.980;5.850;2022-08-19T08:22:02;101116.94;;;25.94;59.97
51603;BME280;37954;51.980;5.850;2022-08-19T08:26:14;101125.59;;;27.53;58.01
51603;BME280;37954;51.980;5.850;2022-08-19T08:30:30;101143.75;;;28.77;54.85
51603;BME280;37954;51.980;5.850;2022-08-19T08:34:44;101112.84;;;29.70;52.05
51603;BME280;37954;51.980;5.850;2022-08-19T08:39:02;101139.66;;;30.88;49.08
51603;BME280;37954;51.980;5.850;2022-08-19T08:47:37;101151.50;;;32.28;43.79
51603;BME280;37954;51.980;5.850;2022-08-19T08:52:00;101141.84;;;32.73;41.32
51603;BME280;37954;51.980;5.850;2022-08-19T08:56:13;101137.75;;;33.44;41.31
51603;BME280;37954;51.980;5.850;2022-08-19T09:00:38;101151.19;;;33.61;38.28
51603;BME280;37954;51.980;5.850;2022-08-19T09:04:50;101149.59;;;33.60;38.20
51603;BME280;37954;51.980;5.850;2022-08-19T09:13:31;101141.78;;;33.88;37.92
51603;BME280;37954;51.980;5.850;2022-08-19T09:17:48;101138.00;;;34.00;37.49
51603;BME280;37954;51.980;5.850;2022-08-19T09:22:02;101127.34;;;34.29;37.21
51603;BME280;37954;51.980;5.850;2022-08-19T09:26:16;101140.69;;;34.42;36.41
51603;BME280;37954;51.980;5.850;2022-08-19T09:30:39;101142.59;;;34.65;36.01
51603;BME280;37954;51.980;5.850;2022-08-19T09:34:51;101150.72;;;34.47;36.08
51603;BME280;37954;51.980;5.850;2022-08-19T09:39:06;101155.88;;;33.34;37.10
51603;BME280;37954;51.980;5.850;2022-08-19T09:43:27;101156.19;;;32.94;37.85
51603;BME280;37954;51.980;5.850;2022-08-19T09:47:54;101157.91;;;33.18;37.80
51603;BME280;37954;51.980;5.850;2022-08-19T09:52:08;101152.78;;;33.59;37.69
51603;BME280;37954;51.980;5.850;2022-08-19T09:56:24;101151.56;;;34.25;36.85
51603;BME280;37954;51.980;5.850;2022-08-19T10:00:37;101153.94;;;34.75;36.16
51603;BME280;37954;51.980;5.850;2022-08-19T10:04:49;101161.63;;;35.12;34.87
51603;BME280;37954;51.980;5.850;2022-08-19T10:09:19;101156.53;;;35.21;34.43
51603;BME280;37954;51.980;5.850;2022-08-19T10:13:45;101158.81;;;34.82;33.56
51603;BME280;37954;51.980;5.850;2022-08-19T10:17:57;101154.44;;;34.28;33.98
51603;BME280;37954;51.980;5.850;2022-08-19T10:22:11;101145.84;;;34.40;34.12
51603;BME280;37954;51.980;5.850;2022-08-19T10:26:28;101140.03;;;34.26;34.18
51603;BME280;37954;51.980;5.850;2022-08-19T10:30:41;101153.66;;;34.84;33.70
51603;BME280;37954;51.980;5.850;2022-08-19T10:34:53;101143.94;;;34.74;33.30
51603;BME280;37954;51.980;5.850;2022-08-19T10:39:09;101154.81;;;34.53;33.96
51603;BME280;37954;51.980;5.850;2022-08-19T10:43:21;101150.06;;;34.31;33.93
51603;BME280;37954;51.980;5.850;2022-08-19T10:47:33;101151.00;;;34.38;34.05
51603;BME280;37954;51.980;5.850;2022-08-19T10:51:45;101146.06;;;34.05;34.76
51603;BME280;37954;51.980;5.850;2022-08-19T10:56:20;101154.97;;;34.14;34.49
51603;BME280;37954;51.980;5.850;2022-08-19T11:00:58;101143.28;;;34.05;34.11
51603;BME280;37954;51.980;5.850;2022-08-19T11:05:10;101137.00;;;34.61;34.16
51603;BME280;37954;51.980;5.850;2022-08-19T11:09:25;101131.13;;;34.96;33.59
51603;BME280;37954;51.980;5.850;2022-08-19T11:13:44;101129.94;;;34.97;33.26
51603;BME280;37954;51.980;5.850;2022-08-19T11:17:57;101130.97;;;35.19;33.08
51603;BME280;37954;51.980;5.850;2022-08-19T11:22:09;101131.44;;;35.24;32.41
51603;BME280;37954;51.980;5.850;2022-08-19T11:26:27;101128.22;;;35.22;32.45
51603;BME280;37954;51.980;5.850;2022-08-19T11:30:39;101122.25;;;35.57;32.30
51603;BME280;37954;51.980;5.850;2022-08-19T11:34:50;101134.75;;;35.71;32.25
51603;BME280;37954;51.980;5.850;2022-08-19T11:39:05;101136.25;;;35.61;31.86
51603;BME280;37954;51.980;5.850;2022-08-19T11:43:17;101117.38;;;35.17;31.45
51603;BME280;37954;51.980;5.850;2022-08-19T11:47:30;101118.78;;;35.01;32.00
51603;BME280;37954;51.980;5.850;2022-08-19T11:51:42;101122.81;;;35.03;32.71
51603;BME280;37954;51.980;5.850;2022-08-19T11:55:54;101130.16;;;35.18;32.27
51603;BME280;37954;51.980;5.850;2022-08-19T12:00:07;101127.19;;;35.34;32.49
51603;BME280;37954;51.980;5.850;2022-08-19T12:04:19;101111.78;;;35.14;32.31
51603;BME280;37954;51.980;5.850;2022-08-19T12:08:31;101113.03;;;35.20;32.54
51603;BME280;37954;51.980;5.850;2022-08-19T12:12:43;101108.66;;;35.22;32.93
51603;BME280;37954;51.980;5.850;2022-08-19T12:17:09;101108.34;;;35.28;32.98
51603;BME280;37954;51.980;5.850;2022-08-19T12:21:26;101109.69;;;35.07;33.40
51603;BME280;37954;51.980;5.850;2022-08-19T12:25:47;101112.94;;;34.79;33.31
51603;BME280;37954;51.980;5.850;2022-08-19T12:30:04;101105.94;;;34.13;34.53
51603;BME280;37954;51.980;5.850;2022-08-19T12:34:16;101102.06;;;33.72;35.26
51603;BME280;37954;51.980;5.850;2022-08-19T12:38:28;101119.28;;;33.36;35.97
51603;BME280;37954;51.980;5.850;2022-08-19T12:42:40;101105.97;;;32.87;36.63
51603;BME280;37954;51.980;5.850;2022-08-19T12:46:56;101103.03;;;32.29;37.81
51603;BME280;37954;51.980;5.850;2022-08-19T12:51:11;101089.16;;;31.82;38.27
51603;BME280;37954;51.980;5.850;2022-08-19T12:55:24;101085.47;;;31.78;38.81
51603;BME280;37954;51.980;5.850;2022-08-19T12:59:37;101077.25;;;31.81;38.96
51603;BME280;37954;51.980;5.850;2022-08-19T13:03:49;101083.69;;;32.01;38.74
51603;BME280;37954;51.980;5.850;2022-08-19T13:08:01;101075.06;;;31.75;39.29
51603;BME280;37954;51.980;5.850;2022-08-19T13:12:13;101076.53;;;31.69;39.88
51603;BME280;37954;51.980;5.850;2022-08-19T13:16:26;101070.16;;;31.84;40.31
51603;BME280;37954;51.980;5.850;2022-08-19T13:20:39;101068.31;;;32.07;40.03
51603;BME280;37954;51.980;5.850;2022-08-19T13:24:52;101064.59;;;32.00;39.85
51603;BME280;37954;51.980;5.850;2022-08-19T13:29:04;101060.56;;;31.66;39.49
51603;BME280;37954;51.980;5.850;2022-08-19T13:33:34;101071.00;;;31.41;40.29
51603;BME280;37954;51.980;5.850;2022-08-19T13:37:46;101068.22;;;31.41;40.02
51603;BME280;37954;51.980;5.850;2022-08-19T13:41:59;101065.75;;;31.52;40.41
51603;BME280;37954;51.980;5.850;2022-08-19T13:46:12;101060.25;;;31.55;40.24
51603;BME280;37954;51.980;5.850;2022-08-19T13:50:28;101066.66;;;31.71;40.49
51603;BME280;37954;51.980;5.850;2022-08-19T13:54:40;101048.78;;;31.57;40.70
51603;BME280;37954;51.980;5.850;2022-08-19T13:58:51;101049.22;;;31.59;40.71
51603;BME280;37954;51.980;5.850;2022-08-19T14:03:04;101045.03;;;31.49;41.29
51603;BME280;37954;51.980;5.850;2022-08-19T14:07:19;101047.50;;;31.23;41.78
51603;BME280;37954;51.980;5.850;2022-08-19T14:11:31;101035.09;;;30.76;42.31
51603;BME280;37954;51.980;5.850;2022-08-19T14:15:44;101056.88;;;30.38;43.13
51603;BME280;37954;51.980;5.850;2022-08-19T14:19:57;101046.28;;;30.16;43.66
51603;BME280;37954;51.980;5.850;2022-08-19T14:24:20;101049.41;;;30.14;43.97
51603;BME280;37954;51.980;5.850;2022-08-19T14:28:32;101031.41;;;29.96;44.62
51603;BME280;37954;51.980;5.850;2022-08-19T14:32:44;101043.38;;;29.88;44.84
51603;BME280;37954;51.980;5.850;2022-08-19T14:36:55;101066.81;;;29.90;44.95
51603;BME280;37954;51.980;5.850;2022-08-19T14:41:11;101059.41;;;29.70;45.39
51603;BME280;37954;51.980;5.850;2022-08-19T14:45:23;101063.81;;;29.71;45.71
51603;BME280;37954;51.980;5.850;2022-08-19T14:49:35;101066.94;;;29.82;45.62
51603;BME280;37954;51.980;5.850;2022-08-19T14:53:55;101053.31;;;29.76;45.02
51603;BME280;37954;51.980;5.850;2022-08-19T14:58:07;101064.16;;;29.69;45.67
51603;BME280;37954;51.980;5.850;2022-08-19T15:02:41;101039.13;;;29.33;46.12
51603;BME280;37954;51.980;5.850;2022-08-19T15:06:55;101050.84;;;29.18;46.43
51603;BME280;37954;51.980;5.850;2022-08-19T15:11:09;101056.03;;;29.07;46.68
51603;BME280;37954;51.980;5.850;2022-08-19T15:15:21;101057.38;;;28.80;47.34
51603;BME280;37954;51.980;5.850;2022-08-19T15:19:34;101057.38;;;28.38;49.23
51603;BME280;37954;51.980;5.850;2022-08-19T15:23:48;101085.19;;;28.33;49.87
51603;BME280;37954;51.980;5.850;2022-08-19T15:28:01;101078.63;;;28.08;50.85
51603;BME280;37954;51.980;5.850;2022-08-19T15:32:14;101090.28;;;27.85;52.36
51603;BME280;37954;51.980;5.850;2022-08-19T15:36:26;101085.94;;;27.75;52.80
51603;BME280;37954;51.980;5.850;2022-08-19T15:40:39;101089.69;;;27.70;53.22
51603;BME280;37954;51.980;5.850;2022-08-19T15:44:52;101085.00;;;27.62;53.35
51603;BME280;37954;51.980;5.850;2022-08-19T15:49:05;101093.78;;;27.64;53.93
51603;BME280;37954;51.980;5.850;2022-08-19T15:53:17;101090.53;;;27.45;54.58
51603;BME280;37954;51.980;5.850;2022-08-19T15:57:29;101080.34;;;27.28;55.50
51603;BME280;37954;51.980;5.850;2022-08-19T16:01:40;101070.63;;;27.22;55.80
51603;BME280;37954;51.980;5.850;2022-08-19T16:06:11;101079.38;;;27.33;55.84
51603;BME280;37954;51.980;5.850;2022-08-19T16:10:39;101094.13;;;27.20;55.76
51603;BME280;37954;51.980;5.850;2022-08-19T16:14:50;101089.00;;;27.01;55.81
51603;BME280;37954;51.980;5.850;2022-08-19T16:19:05;101093.16;;;26.90;56.00
51603;BME280;37954;51.980;5.850;2022-08-19T16:23:22;101098.84;;;26.93;55.99
51603;BME280;37954;51.980;5.850;2022-08-19T16:27:34;101092.41;;;26.98;55.98
51603;BME280;37954;51.980;5.850;2022-08-19T16:31:46;101071.44;;;26.88;56.04
51603;BME280;37954;51.980;5.850;2022-08-19T16:35:58;101099.84;;;27.15;55.66
51603;BME280;37954;51.980;5.850;2022-08-19T16:40:18;101105.03;;;27.16;55.73
51603;BME280;37954;51.980;5.850;2022-08-19T16:44:30;101095.44;;;27.22;55.59
51603;BME280;37954;51.980;5.850;2022-08-19T16:48:41;101106.81;;;27.29;55.53
51603;BME280;37954;51.980;5.850;2022-08-19T16:52:55;101109.69;;;27.42;55.49
51603;BME280;37954;51.980;5.850;2022-08-19T16:57:08;101091.38;;;27.20;55.65
51603;BME280;37954;51.980;5.850;2022-08-19T17:01:22;101088.50;;;26.99;56.02
51603;BME280;37954;51.980;5.850;2022-08-19T17:05:34;101097.88;;;26.89;56.48
51603;BME280;37954;51.980;5.850;2022-08-19T17:09:46;101101.94;;;26.83;56.78
51603;BME280;37954;51.980;5.850;2022-08-19T17:14:03;101096.91;;;26.77;57.06
51603;BME280;37954;51.980;5.850;2022-08-19T17:18:15;101106.78;;;26.78;56.90
51603;BME280;37954;51.980;5.850;2022-08-19T17:22:28;101106.94;;;26.73;57.46
51603;BME280;37954;51.980;5.850;2022-08-19T17:26:40;101077.25;;;26.52;57.88
51603;BME280;37954;51.980;5.850;2022-08-19T17:30:52;101095.91;;;26.55;57.93
51603;BME280;37954;51.980;5.850;2022-08-19T17:35:04;101091.34;;;26.51;58.08
51603;BME280;37954;51.980;5.850;2022-08-19T17:39:16;101099.59;;;26.51;58.20
51603;BME280;37954;51.980;5.850;2022-08-19T17:43:28;101096.72;;;26.47;58.39
51603;BME280;37954;51.980;5.850;2022-08-19T17:47:44;101095.53;;;26.40;58.36
51603;BME280;37954;51.980;5.850;2022-08-19T17:51:56;101102.19;;;26.39;58.64
51603;BME280;37954;51.980;5.850;2022-08-19T17:56:10;101095.84;;;26.29;58.67
51603;BME280;37954;51.980;5.850;2022-08-19T18:00:21;101110.69;;;26.20;58.98
51603;BME280;37954;51.980;5.850;2022-08-19T18:04:37;101102.72;;;26.10;59.56
51603;BME280;37954;51.980;5.850;2022-08-19T18:08:48;101112.44;;;26.07;59.92
51603;BME280;37954;51.980;5.850;2022-08-19T18:13:00;101097.47;;;25.91;60.03
51603;BME280;37954;51.980;5.850;2022-08-19T18:17:27;101090.94;;;25.78;60.19
51603;BME280;37954;51.980;5.850;2022-08-19T18:21:40;101109.22;;;25.74;60.54
51603;BME280;37954;51.980;5.850;2022-08-19T18:25:52;101122.47;;;25.72;60.57
51603;BME280;37954;51.980;5.850;2022-08-19T18:30:07;101121.34;;;25.51;61.34
51603;BME280;37954;51.980;5.850;2022-08-19T18:34:19;101119.47;;;25.38;61.86
51603;BME280;37954;51.980;5.850;2022-08-19T18:38:30;101091.41;;;25.05;62.77
51603;BME280;37954;51.980;5.850;2022-08-19T18:43:02;101107.97;;;25.13;62.97
51603;BME280;37954;51.980;5.850;2022-08-19T18:47:25;101107.72;;;25.01;63.27
51603;BME280;37954;51.980;5.850;2022-08-19T18:51:56;101123.81;;;24.94;63.61
51603;BME280;37954;51.980;5.850;2022-08-19T18:56:11;101123.22;;;24.83;63.59
51603;BME280;37954;51.980;5.850;2022-08-19T19:00:23;101127.59;;;24.84;63.90
51603;BME280;37954;51.980;5.850;2022-08-19T19:04:36;101112.63;;;24.77;63.98
51603;BME280;37954;51.980;5.850;2022-08-19T19:08:52;101132.47;;;24.87;64.32
51603;BME280;37954;51.980;5.850;2022-08-19T19:13:04;101132.81;;;24.72;64.69
51603;BME280;37954;51.980;5.850;2022-08-19T19:17:16;101135.78;;;24.62;64.42
51603;BME280;37954;51.980;5.850;2022-08-19T19:21:28;101132.03;;;24.44;65.02
51603;BME280;37954;51.980;5.850;2022-08-19T19:25:44;101146.38;;;24.27;65.86
51603;BME280;37954;51.980;5.850;2022-08-19T19:30:01;101152.56;;;24.06;66.85
51603;BME280;37954;51.980;5.850;2022-08-19T19:34:13;101152.50;;;23.92;67.27
51603;BME280;37954;51.980;5.850;2022-08-19T19:38:41;101158.00;;;23.92;67.75
51603;BME280;37954;51.980;5.850;2022-08-19T19:42:59;101149.59;;;23.88;68.09
51603;BME280;37954;51.980;5.850;2022-08-19T19:47:10;101158.94;;;23.87;68.72
51603;BME280;37954;51.980;5.850;2022-08-19T19:51:23;101172.94;;;23.86;69.03
51603;BME280;37954;51.980;5.850;2022-08-19T19:55:35;101151.34;;;23.66;69.63
51603;BME280;37954;51.980;5.850;2022-08-19T19:59:47;101176.47;;;23.73;69.22
51603;BME280;37954;51.980;5.850;2022-08-19T20:04:02;101168.19;;;23.59;70.16
51603;BME280;37954;51.980;5.850;2022-08-19T20:08:14;101165.84;;;23.52;70.35
51603;BME280;37954;51.980;5.850;2022-08-19T20:12:44;101178.16;;;23.55;70.13
51603;BME280;37954;51.980;5.850;2022-08-19T20:16:57;101166.13;;;23.51;70.26
51603;BME280;37954;51.980;5.850;2022-08-19T20:21:09;101177.09;;;23.51;70.78
51603;BME280;37954;51.980;5.850;2022-08-19T20:25:22;101176.53;;;23.54;70.27
51603;BME280;37954;51.980;5.850;2022-08-19T20:29:33;101163.31;;;23.37;71.71
51603;BME280;37954;51.980;5.850;2022-08-19T20:33:51;101182.06;;;23.49;70.75
51603;BME280;37954;51.980;5.850;2022-08-19T20:38:03;101166.56;;;23.39;70.90
51603;BME280;37954;51.980;5.850;2022-08-19T20:42:16;101188.72;;;23.43;71.31
51603;BME280;37954;51.980;5.850;2022-08-19T20:46:28;101191.47;;;23.43;71.00
51603;BME280;37954;51.980;5.850;2022-08-19T20:50:40;101188.72;;;23.43;71.15
51603;BME280;37954;51.980;5.850;2022-08-19T20:54:52;101194.38;;;23.33;71.38
51603;BME280;37954;51.980;5.850;2022-08-19T20:59:07;101193.69;;;23.22;71.50
51603;BME280;37954;51.980;5.850;2022-08-19T21:03:25;101200.91;;;23.18;71.75
51603;BME280;37954;51.980;5.850;2022-08-19T21:07:37;101207.34;;;23.08;72.01
51603;BME280;37954;51.980;5.850;2022-08-19T21:11:50;101194.72;;;22.88;72.32
51603;BME280;37954;51.980;5.850;2022-08-19T21:16:01;101194.84;;;22.78;72.70
51603;BME280;37954;51.980;5.850;2022-08-19T21:20:19;101197.34;;;22.75;72.66
51603;BME280;37954;51.980;5.850;2022-08-19T21:24:31;101202.47;;;22.57;73.24
51603;BME280;37954;51.980;5.850;2022-08-19T21:28:42;101189.94;;;22.51;72.76
51603;BME280;37954;51.980;5.850;2022-08-19T21:32:54;101180.81;;;22.37;73.23
51603;BME280;37954;51.980;5.850;2022-08-19T21:37:06;101181.22;;;22.26;73.64
51603;BME280;37954;51.980;5.850;2022-08-19T21:41:30;101182.63;;;22.23;73.66
51603;BME280;37954;51.980;5.850;2022-08-19T21:45:42;101187.28;;;22.22;74.03
51603;BME280;37954;51.980;5.850;2022-08-19T21:49:54;101194.94;;;22.20;73.87
51603;BME280;37954;51.980;5.850;2022-08-19T21:54:06;101183.72;;;22.22;73.74
51603;BME280;37954;51.980;5.850;2022-08-19T21:58:24;101184.78;;;22.26;73.41
51603;BME280;37954;51.980;5.850;2022-08-19T22:02:40;101190.50;;;22.30;73.73
51603;BME280;37954;51.980;5.850;2022-08-19T22:06:52;101200.38;;;22.26;74.08
51603;BME280;37954;51.980;5.850;2022-08-19T22:11:04;101188.91;;;22.23;74.10
51603;BME280;37954;51.980;5.850;2022-08-19T22:15:16;101186.41;;;22.27;73.84
51603;BME280;37954;51.980;5.850;2022-08-19T22:19:28;101199.28;;;22.27;74.02